• Join FlightAware (Why Join?)
  • Login
  • US Flag 
03:39PM EST


 

Airport Tracker/Info


-or-


 

Live Flight TrackerFlight Track Log ✈ HA117 ✈ 14-Feb-2014 ✈ CYXT - CYVR

Flight Track Log - Related Links

Times and Time Zones

All times are in EST time to prevent confusion due to time zone crossing. See the HA117 flight status page for this flight to view local times or setup timezone preferences in your user account.

Time Position Orientation Groundspeed Altitude Reporting Facility
EST Latitude Longitude Course Direction KTS MPH feet Rate Location/Type
09:49PM 54.2667 -128.5333 146° Southeast 140 161 10,200  Level Vancouver Center
09:50PM 54.1251 -128.1786 146° Southeast  Level FlightAware Approximate
09:50PM 54.2333 -128.5167 164° South 140 161 11,100  Level Vancouver Center
09:51PM 54.0681 -128.1127 146° Southeast  Level FlightAware Approximate
09:51PM 54.2000 -128.4500 131° Southeast 160 184 12,100  Level Vancouver Center
09:52PM 54.0111 -128.0471 146° Southeast  Level FlightAware Approximate
09:52PM 54.1667 -128.4167 150° Southeast 170 196 13,000  Level Vancouver Center
09:53PM 53.9540 -127.9816 146° Southeast  Level FlightAware Approximate
09:53PM 54.1167 -128.3500 142° Southeast 180 207 14,200  Level Vancouver Center
09:54PM 53.8969 -127.9163 146° Southeast  Level FlightAware Approximate
09:54PM 54.0833 -128.3167 150° Southeast 180 207 15,000  Level Vancouver Center
09:55PM 53.8398 -127.8511 146° Southeast  Level FlightAware Approximate
09:55PM 54.0333 -128.2667 150° Southeast 190 219 15,800  Level Vancouver Center
09:56PM 54.0000 -128.2333 150° Southeast 180 207 16,600 780 Climbing Vancouver Center
09:57PM 53.9500 -128.1667 142° Southeast 190 219 17,400 900 Climbing Vancouver Center
09:58PM 53.9000 -128.1000 142° Southeast 190 219 18,500 900 Climbing Vancouver Center
09:59PM 53.8500 -128.0667 159° South 190 219 19,200 720 Climbing Vancouver Center
10:00PM 53.8000 -128.0167 149° Southeast 200 230 20,000 720 Climbing Vancouver Center
10:01PM 53.7833 -127.9500 113° Southeast 200 230 20,700 660 Climbing Vancouver Center
10:02PM 53.7333 -127.8833 142° Southeast 210 242 21,400 600 Climbing Vancouver Center
10:03PM 53.6833 -127.8500 158° South 200 230 22,000 660 Climbing Vancouver Center
10:04PM 53.6333 -127.8000 149° Southeast 200 230 22,800 660 Climbing Vancouver Center
10:05PM 53.5833 -127.7333 142° Southeast 200 230 23,400 600 Climbing Vancouver Center
10:06PM 53.5333 -127.6667 142° Southeast 210 242 24,000 540 Climbing Vancouver Center
10:07PM 53.4833 -127.6167 149° Southeast 200 230 24,500 420 Climbing Vancouver Center
10:08PM 53.4333 -127.5500 142° Southeast 210 242 24,900 240 Climbing Vancouver Center
10:09PM 53.3833 -127.5000 149° Southeast 220 253 25,000  Climbing Vancouver Center
10:10PM 53.3333 -127.4333 141° Southeast 230 265 25,000  Level Vancouver Center
10:11PM 53.2833 -127.3667 141° Southeast 250 288 25,000  Level Vancouver Center
10:12PM 53.2167 -127.3167 156° South 250 288 25,000  Level Vancouver Center
10:13PM 53.1667 -127.2500 141° Southeast 260 299 25,000  Level Vancouver Center
10:14PM 53.1000 -127.1667 143° Southeast 260 299 25,000  Level Vancouver Center
10:15PM 53.0333 -127.1000 149° Southeast 260 299 25,000  Level Vancouver Center
10:16PM 52.9667 -127.0167 143° Southeast 270 311 25,000  Level Vancouver Center
10:17PM 52.9167 -126.9500 141° Southeast 260 299 25,000  Level Vancouver Center
10:18PM 52.8500 -126.9000 156° South 260 299 25,000  Level Vancouver Center
10:19PM 52.7833 -126.8333 149° Southeast 270 311 25,000  Level Vancouver Center
10:20PM 52.7333 -126.7500 135° Southeast 270 311 25,000  Level Vancouver Center
10:21PM 52.6833 -126.6833 141° Southeast 270 311 25,000  Level Vancouver Center
10:22PM 52.6000 -126.6000 149° Southeast 270 311 25,000  Level Vancouver Center
10:23PM 52.5500 -126.5500 149° Southeast 270 311 25,000  Level Vancouver Center
10:24PM 52.4833 -126.4833 149° Southeast 280 322 25,000  Level Vancouver Center
10:25PM 52.4167 -126.4000 143° Southeast 270 311 25,000  Level Vancouver Center
10:26PM 52.3500 -126.3333 149° Southeast 270 311 25,000  Level Vancouver Center
10:27PM 52.2833 -126.2500 143° Southeast 270 311 25,000  Level Vancouver Center
10:28PM 52.2167 -126.2000 155° Southeast 270 311 25,000  Level Vancouver Center
10:29PM 52.1500 -126.1333 148° Southeast 270 311 25,000  Level Vancouver Center
10:30PM 52.1000 -126.0500 134° Southeast 270 311 25,000  Level Vancouver Center
10:31PM 52.0333 -126.0000 155° Southeast 270 311 25,000  Level Vancouver Center
10:32PM 51.9667 -125.9333 148° Southeast 270 311 25,000  Level Vancouver Center
10:33PM 51.9167 -125.8500 134° Southeast 280 322 25,000  Level Vancouver Center
10:34PM 51.8500 -125.8000 155° Southeast 280 322 25,000  Level Vancouver Center
10:35PM 51.7833 -125.7167 142° Southeast 280 322 25,000  Level Vancouver Center
10:36PM 51.7167 -125.6500 148° Southeast 280 322 25,000  Level Vancouver Center
10:37PM 51.6500 -125.5667 142° Southeast 280 322 25,000  Level Vancouver Center
10:38PM 51.5833 -125.5167 155° Southeast 270 311 25,000  Level Vancouver Center
10:39PM 51.5167 -125.4667 155° Southeast 270 311 25,000  Level Vancouver Center
10:40PM 51.4667 -125.3833 134° Southeast 270 311 25,000  Level Vancouver Center
10:41PM 51.4000 -125.3167 148° Southeast 270 311 25,000  Level Vancouver Center
10:42PM 51.3333 -125.2667 155° Southeast 270 311 25,000  Level Vancouver Center
10:43PM 51.2667 -125.1833 142° Southeast 270 311 25,000  Level Vancouver Center
10:44PM 51.2000 -125.1333 155° Southeast 270 311 25,000  Level Vancouver Center
10:45PM 51.1333 -125.0500 142° Southeast 270 311 25,000  Level Vancouver Center
10:46PM 51.0833 -125.0000 148° Southeast 270 311 25,000  Level Vancouver Center
10:47PM 51.0167 -124.9333 148° Southeast 280 322 25,000  Level Vancouver Center
10:48PM 50.9500 -124.8667 148° Southeast 280 322 25,000  Level Vancouver Center
10:49PM 50.8833 -124.8000 148° Southeast 280 322 25,000  Level Vancouver Center
10:50PM 50.8167 -124.7167 142° Southeast 280 322 25,000  Level Vancouver Center
10:51PM 50.7500 -124.6667 155° Southeast 280 322 25,000  Level Vancouver Center
10:52PM 50.6833 -124.5833 142° Southeast 280 322 25,000  Level Vancouver Center
10:53PM 50.6167 -124.5333 155° Southeast 280 322 25,000  Level Vancouver Center
10:54PM 50.5500 -124.4500 142° Southeast 280 322 25,000  Level Vancouver Center
10:55PM 50.4833 -124.4000 154° Southeast 290 334 25,000  Level Vancouver Center
10:56PM 50.4167 -124.3167 141° Southeast 280 322 25,000 -60 Level Vancouver Center
10:57PM 50.3500 -124.2667 154° Southeast 290 334 24,900 -660 Descending Vancouver Center
10:58PM 50.2667 -124.1833 147° Southeast 300 345 23,700 -1,500 Descending Vancouver Center
10:59PM 50.2000 -124.1167 147° Southeast 320 368 22,000 -1,800 Descending Vancouver Center
11:00PM 50.1167 -124.0667 159° South 320 368 20,200 -1,800 Descending Vancouver Center
11:01PM 50.0500 -123.9833 141° Southeast 310 357 18,500 -1,680 Descending Vancouver Center
11:02PM 49.9833 -123.9000 141° Southeast 310 357 16,900 -1,680 Descending Vancouver Center
11:03PM 49.9000 -123.8167 147° Southeast 300 345 15,200 -1,620 Descending Vancouver Center
11:04PM 49.8333 -123.7667 154° Southeast 280 322 13,700 -1,500 Descending Vancouver Center
11:05PM 49.7833 -123.7167 147° Southeast 280 322 12,200 -1,440 Descending Vancouver Center
11:06PM 49.7000 -123.6667 159° South 280 322 10,900 -1,140 Descending Vancouver Center
11:07PM 49.6500 -123.6167 147° Southeast 260 299 10,000 -480 Descending Vancouver Center
11:08PM 49.5833 -123.5667 154° Southeast 240 276 10,000  Level Vancouver Center
11:09PM 49.5333 -123.5167 147° Southeast 230 265 10,000  Level Vancouver Center
11:10PM 49.4667 -123.4667 154° Southeast 230 265 10,000  Level Vancouver Center
11:11PM 49.4167 -123.4167 147° Southeast 230 265 10,000  Level Vancouver Center
11:12PM 49.3500 -123.3833 162° South 230 265 10,000  Level Vancouver Center
11:13PM 49.3000 -123.3333 147° Southeast 240 276 10,000 -540 Level Vancouver Center
11:14PM 49.2667 -123.2667 127° Southeast 250 288 9,000 -1,680 Descending Vancouver Center
11:15PM 49.2500 -123.1333 101° East 250 288 6,700 -2,460 Descending Vancouver Center
11:16PM 49.2333 -123.0333 104° East 240 276 4,100 -1,860 Descending Vancouver Center
11:17PM 49.2167 -122.9500 107° East 220 253 3,000 -900 Descending Vancouver Center
11:18PM 49.1833 -123.0000 224° Southwest 180 207 2,400 -780 Descending Vancouver Center
11:19PM 49.1667 -123.0667 249° West 150 173 1,500 -840 Descending Vancouver Center
11:20PM 49.1667 -123.1167 270° West 120 138 800 -720 Descending Vancouver Center
11:21PM 49.1833 -123.1667 297° West 120 138 100 -720 Descending Vancouver Center